Champion — WCZ7631 — position and weather

sailwx.info

Track history (hours):
 
Tides and Currents Weather Stations Pressure Air Temp Water Temp Dewpoint Dewpoint Depression Visibility Wind Speed Wind Dir Waves Ship Positions

Champion

Owner: MC CULLEY MARINE SERVICES INC, FORT PIERCE, FL. More information available from US FCC via Universal Licensing System and Coast Guard Vessel Documentation Center.

Last reported at 2016-May-22 11:19 UTC. Time now 2016-May-31 11:59 UTC.
Position N 27°38' W 082°34'.
Warning: this ship's position is 9 days out of date.

Length 20 m; draft 1.7 m.

Type: Towing. MMSI: 367005250.

Date/timePositionNaut miles runAvg speedWind from/ knotsBaromVisibWave heightAir tempDewpointWater temp
2016-May-22 11:19N 27°38' W 082°34'0 0.0
2016-May-21 17:30N 27°38' W 082°34'0 0.0
2016-May-21 12:14N 27°38' W 082°34'0 0.0
2016-May-21 11:30N 27°38' W 082°34'0 0.0
2016-May-21 10:33N 27°38' W 082°34'0 0.0
2016-May-21 09:30N 27°38' W 082°34'0 0.0
2016-May-21 07:34N 27°38' W 082°34'0 0.0
2016-May-21 06:33N 27°38' W 082°34'0 0.0
2016-May-21 05:32N 27°38' W 082°34'0 0.0
2016-May-21 03:32N 27°38' W 082°34'0 0.0
2016-May-21 02:33N 27°38' W 082°34'0 0.0
2016-May-21 01:33N 27°38' W 082°34'0 0.0
2016-May-21 00:19N 27°38' W 082°34'0 0.0
2016-May-20 23:33N 27°38' W 082°34'0 0.0
2016-May-20 22:22N 27°38' W 082°34'0 0.0
2016-May-20 21:25N 27°38' W 082°34'0 0.0
2016-May-20 17:14N 27°38' W 082°34'0 0.0
2016-May-20 16:21N 27°38' W 082°34'0 0.0
2016-May-20 15:15N 27°38' W 082°34'0 0.2
2016-May-20 14:30N 27°38' W 082°34'0 0.1
2016-May-20 13:07N 27°38' W 082°34'0 0.2
2016-May-20 12:33N 27°38' W 082°34'0 0.0
2016-May-20 11:33N 27°38' W 082°34'0 0.0
2016-May-20 10:33N 27°38' W 082°34'0 0.0
2016-May-20 09:33N 27°38' W 082°34'0 0.0
2016-May-20 08:33N 27°38' W 082°34'0 0.0
2016-May-20 07:34N 27°38' W 082°34'0 0.0
2016-May-20 06:33N 27°38' W 082°34'0 0.0
2016-May-20 05:33N 27°38' W 082°34'0 0.0
2016-May-20 04:32N 27°38' W 082°34'0 0.0
2016-May-20 03:31N 27°38' W 082°34'0 0.0
2016-May-20 02:30N 27°38' W 082°34'0 0.0
2016-May-20 01:28N 27°38' W 082°34'0 0.0
2016-May-20 00:21N 27°38' W 082°34'0 0.0
2016-May-19 23:24N 27°38' W 082°34'0 0.0
2016-May-19 22:33N 27°38' W 082°34'0 0.0
2016-May-19 21:29N 27°38' W 082°34'0 0.0
2016-May-19 20:11N 27°38' W 082°34'0 0.0
2016-May-19 18:33N 27°38' W 082°34'0 0.0
2016-May-19 17:32N 27°38' W 082°34'0 0.0
2016-May-19 14:17N 27°38' W 082°34'0 0.0
2016-May-19 13:33N 27°38' W 082°34'0 0.0
2016-May-19 12:33N 27°38' W 082°34'0 0.0
2016-May-19 11:32N 27°38' W 082°34'0 0.0
2016-May-19 10:33N 27°38' W 082°34'0 0.0
2016-May-19 09:30N 27°38' W 082°34'0 0.0
2016-May-19 08:19N 27°38' W 082°34'0 0.0
2016-May-19 07:07N 27°38' W 082°34'0 0.0
2016-May-19 06:33N 27°38' W 082°34'0 0.0
2016-May-19 05:33N 27°38' W 082°34'0 0.0
2016-May-19 04:33N 27°38' W 082°34'0 0.0
2016-May-19 03:32N 27°38' W 082°34'0 0.0
2016-May-19 02:31N 27°38' W 082°34'0 0.0
2016-May-19 01:33N 27°38' W 082°34'0 0.0
2016-May-19 00:33N 27°38' W 082°34'0 0.0
2016-May-18 23:33N 27°38' W 082°34'0 0.0
2016-May-18 22:20N 27°38' W 082°34'0 0.0
2016-May-18 20:32N 27°38' W 082°34'0 0.1
2016-May-18 19:33N 27°38' W 082°34'0 0.0
2016-May-18 18:33N 27°38' W 082°34'0 0.0
2016-May-18 17:33N 27°38' W 082°34'0 0.0
2016-May-18 16:33N 27°38' W 082°34'0 0.0
2016-May-18 15:32N 27°38' W 082°34'1 0.7
2016-May-18 14:21N 27°39' W 082°34'1 1.0
2016-May-18 13:32N 27°38' W 082°34'0 0.1
2016-May-18 12:33N 27°38' W 082°34'59 3.1
2016-May-17 17:22N 26°41' W 082°19'5 6.3
2016-May-17 16:34N 26°40' W 082°13'8 8.2
2016-May-17 15:34N 26°33' W 082°10'7 6.8
2016-May-17 14:34N 26°29' W 082°04'7 7.3
2016-May-17 13:34N 26°33' W 081°56'8 7.6
2016-May-17 12:33N 26°39' W 081°52'8 7.6
2016-May-17 11:34N 26°43' W 081°45'3 2.5
2016-May-17 10:26N 26°43' W 081°41'0 0.0
2016-May-17 09:33N 26°43' W 081°41'0 0.0
2016-May-17 08:33N 26°43' W 081°41'0 0.0
2016-May-17 07:33N 26°43' W 081°41'0 0.0
2016-May-17 06:33N 26°43' W 081°41'0 0.0
2016-May-17 05:34N 26°43' W 081°41'0 0.0
2016-May-17 04:33N 26°43' W 081°41'0 0.0
2016-May-17 03:27N 26°43' W 081°41'0 0.0
2016-May-17 02:33N 26°43' W 081°41'0 0.0
2016-May-17 01:31N 26°43' W 081°41'0 0.0
2016-May-17 00:32N 26°43' W 081°41'0 0.0
2016-May-16 23:33N 26°43' W 081°41'90 2.6
2016-May-15 13:15N 27°28' W 080°13'75 2.2
2016-May-14 03:32N 27°10' W 078°51'  
Track history (hours):
 
Tides and Currents Weather Stations Pressure Air Temp Water Temp Dewpoint Dewpoint Depression Visibility Wind Speed Wind Dir Waves Ship Positions

Champion

Owner: MC CULLEY MARINE SERVICES INC, FORT PIERCE, FL. More information available from US FCC via Universal Licensing System and Coast Guard Vessel Documentation Center.

Last reported at 2016-May-22 11:19 UTC. Time now 2016-May-31 11:59 UTC.
Position N 27°38' W 082°34'.
Warning: this ship's position is 9 days out of date.

Length 20 m; draft 1.7 m.

Type: Towing. MMSI: 367005250.

Date/timePositionNaut miles runAvg speedWind from/ knotsBaromVisibWave heightAir tempDewpointWater temp
2016-May-22 11:19N 27°38' W 082°34'0 0.0
2016-May-21 17:30N 27°38' W 082°34'0 0.0
2016-May-21 12:14N 27°38' W 082°34'0 0.0
2016-May-21 11:30N 27°38' W 082°34'0 0.0
2016-May-21 10:33N 27°38' W 082°34'0 0.0
2016-May-21 09:30N 27°38' W 082°34'0 0.0
2016-May-21 07:34N 27°38' W 082°34'0 0.0
2016-May-21 06:33N 27°38' W 082°34'0 0.0
2016-May-21 05:32N 27°38' W 082°34'0 0.0
2016-May-21 03:32N 27°38' W 082°34'0 0.0
2016-May-21 02:33N 27°38' W 082°34'0 0.0
2016-May-21 01:33N 27°38' W 082°34'0 0.0
2016-May-21 00:19N 27°38' W 082°34'0 0.0
2016-May-20 23:33N 27°38' W 082°34'0 0.0
2016-May-20 22:22N 27°38' W 082°34'0 0.0
2016-May-20 21:25N 27°38' W 082°34'0 0.0
2016-May-20 17:14N 27°38' W 082°34'0 0.0
2016-May-20 16:21N 27°38' W 082°34'0 0.0
2016-May-20 15:15N 27°38' W 082°34'0 0.2
2016-May-20 14:30N 27°38' W 082°34'0 0.1
2016-May-20 13:07N 27°38' W 082°34'0 0.2
2016-May-20 12:33N 27°38' W 082°34'0 0.0
2016-May-20 11:33N 27°38' W 082°34'0 0.0
2016-May-20 10:33N 27°38' W 082°34'0 0.0
2016-May-20 09:33N 27°38' W 082°34'0 0.0
2016-May-20 08:33N 27°38' W 082°34'0 0.0
2016-May-20 07:34N 27°38' W 082°34'0 0.0
2016-May-20 06:33N 27°38' W 082°34'0 0.0
2016-May-20 05:33N 27°38' W 082°34'0 0.0
2016-May-20 04:32N 27°38' W 082°34'0 0.0
2016-May-20 03:31N 27°38' W 082°34'0 0.0
2016-May-20 02:30N 27°38' W 082°34'0 0.0
2016-May-20 01:28N 27°38' W 082°34'0 0.0
2016-May-20 00:21N 27°38' W 082°34'0 0.0
2016-May-19 23:24N 27°38' W 082°34'0 0.0
2016-May-19 22:33N 27°38' W 082°34'0 0.0
2016-May-19 21:29N 27°38' W 082°34'0 0.0
2016-May-19 20:11N 27°38' W 082°34'0 0.0
2016-May-19 18:33N 27°38' W 082°34'0 0.0
2016-May-19 17:32N 27°38' W 082°34'0 0.0
2016-May-19 14:17N 27°38' W 082°34'0 0.0
2016-May-19 13:33N 27°38' W 082°34'0 0.0
2016-May-19 12:33N 27°38' W 082°34'0 0.0
2016-May-19 11:32N 27°38' W 082°34'0 0.0
2016-May-19 10:33N 27°38' W 082°34'0 0.0
2016-May-19 09:30N 27°38' W 082°34'0 0.0
2016-May-19 08:19N 27°38' W 082°34'0 0.0
2016-May-19 07:07N 27°38' W 082°34'0 0.0
2016-May-19 06:33N 27°38' W 082°34'0 0.0
2016-May-19 05:33N 27°38' W 082°34'0 0.0
2016-May-19 04:33N 27°38' W 082°34'0 0.0
2016-May-19 03:32N 27°38' W 082°34'0 0.0
2016-May-19 02:31N 27°38' W 082°34'0 0.0
2016-May-19 01:33N 27°38' W 082°34'0 0.0
2016-May-19 00:33N 27°38' W 082°34'0 0.0
2016-May-18 23:33N 27°38' W 082°34'0 0.0
2016-May-18 22:20N 27°38' W 082°34'0 0.0
2016-May-18 20:32N 27°38' W 082°34'0 0.1
2016-May-18 19:33N 27°38' W 082°34'0 0.0
2016-May-18 18:33N 27°38' W 082°34'0 0.0
2016-May-18 17:33N 27°38' W 082°34'0 0.0
2016-May-18 16:33N 27°38' W 082°34'0 0.0
2016-May-18 15:32N 27°38' W 082°34'1 0.7
2016-May-18 14:21N 27°39' W 082°34'1 1.0
2016-May-18 13:32N 27°38' W 082°34'0 0.1
2016-May-18 12:33N 27°38' W 082°34'59 3.1
2016-May-17 17:22N 26°41' W 082°19'5 6.3
2016-May-17 16:34N 26°40' W 082°13'8 8.2
2016-May-17 15:34N 26°33' W 082°10'7 6.8
2016-May-17 14:34N 26°29' W 082°04'7 7.3
2016-May-17 13:34N 26°33' W 081°56'8 7.6
2016-May-17 12:33N 26°39' W 081°52'8 7.6
2016-May-17 11:34N 26°43' W 081°45'3 2.5
2016-May-17 10:26N 26°43' W 081°41'0 0.0
2016-May-17 09:33N 26°43' W 081°41'0 0.0
2016-May-17 08:33N 26°43' W 081°41'0 0.0
2016-May-17 07:33N 26°43' W 081°41'0 0.0
2016-May-17 06:33N 26°43' W 081°41'0 0.0
2016-May-17 05:34N 26°43' W 081°41'0 0.0
2016-May-17 04:33N 26°43' W 081°41'0 0.0
2016-May-17 03:27N 26°43' W 081°41'0 0.0
2016-May-17 02:33N 26°43' W 081°41'0 0.0
2016-May-17 01:31N 26°43' W 081°41'0 0.0
2016-May-17 00:32N 26°43' W 081°41'0 0.0
2016-May-16 23:33N 26°43' W 081°41'90 2.6
2016-May-15 13:15N 27°28' W 080°13'75 2.2
2016-May-14 03:32N 27°10' W 078°51'  

Dump ship's entire track history